createdAt,value
2019-04-28T00:05:02.232Z,100723.48
2019-04-28T00:07:32.225Z,100730.98
2019-04-28T00:10:01.167Z,100732.63
2019-04-28T00:12:31.118Z,100734.47
2019-04-28T00:14:59.707Z,100733.89
2019-04-28T00:17:28.681Z,100737.53
2019-04-28T00:20:01.355Z,100731.86
2019-04-28T00:22:34.221Z,100734.51
2019-04-28T00:25:04.477Z,100731.21
2019-04-28T00:27:33.104Z,100727.68
2019-04-28T00:30:02.178Z,100730.27
2019-04-28T00:32:32.545Z,100730.89
2019-04-28T00:35:02.320Z,100731.34
2019-04-28T00:37:32.214Z,100737.61
2019-04-28T00:40:01.082Z,100734.91
2019-04-28T00:42:31.460Z,100737.30
2019-04-28T00:45:01.651Z,100738.66
2019-04-28T00:47:31.147Z,100743.41
2019-04-28T00:50:02.117Z,100734.77
2019-04-28T00:52:31.973Z,100738.45
2019-04-28T00:55:01.157Z,100747.31
2019-04-28T00:57:30.950Z,100749.34
2019-04-28T01:00:02.040Z,100740.45
2019-04-28T01:02:31.875Z,100748.61
2019-04-28T01:05:01.482Z,100750.13
2019-04-28T01:07:31.294Z,100747.31
2019-04-28T01:10:01.385Z,100749.27
2019-04-28T01:12:31.126Z,100749.03
2019-04-28T01:15:02.626Z,100749.24
2019-04-28T01:17:39.659Z,100753.92
2019-04-28T01:20:10.079Z,100758.91
2019-04-28T01:22:40.134Z,100761.78
2019-04-28T01:25:10.521Z,100760.77
2019-04-28T01:27:40.982Z,100762.63
2019-04-28T01:30:11.509Z,100760.66
2019-04-28T01:32:49.743Z,100757.39
2019-04-28T01:35:20.825Z,100764.84
2019-04-28T01:37:50.509Z,100767.16
2019-04-28T01:40:20.497Z,100770.44
2019-04-28T01:42:49.947Z,100767.20
2019-04-28T01:45:20.441Z,100767.06
2019-04-28T01:47:50.376Z,100769.45
2019-04-28T01:50:20.430Z,100774.12
2019-04-28T01:52:49.665Z,100780.34
2019-04-28T01:55:20.075Z,100781.83
2019-04-28T01:57:49.820Z,100779.54
2019-04-28T02:00:25.027Z,100783.53
2019-04-28T02:02:50.561Z,100783.15
2019-04-28T02:05:19.788Z,100793.03
2019-04-28T02:07:50.551Z,100798.02
2019-04-28T02:10:21.523Z,100797.45
2019-04-28T02:12:50.314Z,100801.36
2019-04-28T02:15:20.197Z,100804.77
2019-04-28T02:17:51.362Z,100808.07
2019-04-28T02:20:20.580Z,100807.85
2019-04-28T02:22:53.282Z,100806.45
2019-04-28T02:25:21.832Z,100811.17
2019-04-28T02:27:50.409Z,100813.10
2019-04-28T02:30:20.910Z,100823.61
2019-04-28T02:32:51.845Z,100824.59
2019-04-28T02:35:21.383Z,100827.76
2019-04-28T02:37:50.663Z,100834.98
2019-04-28T02:40:20.643Z,100834.77
2019-04-28T02:42:51.967Z,100835.20
2019-04-28T02:45:21.766Z,100841.20
2019-04-28T02:47:52.471Z,100843.70
2019-04-28T02:50:33.081Z,100850.03
2019-04-28T02:53:03.529Z,100849.19
2019-04-28T02:55:32.973Z,100853.38
2019-04-28T02:58:01.811Z,100853.06
2019-04-28T03:00:31.668Z,100860.91
2019-04-28T03:03:01.575Z,100851.43
2019-04-28T03:05:33.132Z,100857.14
2019-04-28T03:08:01.241Z,100867.73
2019-04-28T03:10:31.040Z,100868.55
2019-04-28T03:13:01.200Z,100869.30
2019-04-28T03:15:30.378Z,100865.55
2019-04-28T03:18:01.822Z,100864.30
2019-04-28T03:20:30.590Z,100872.39
2019-04-28T03:23:00.999Z,100870.08
2019-04-28T03:25:33.397Z,100872.06
2019-04-28T03:28:12.212Z,100872.31
2019-04-28T03:30:45.751Z,100876.66
2019-04-28T03:33:18.883Z,100874.52
2019-04-28T03:35:46.653Z,100882.86
2019-04-28T03:38:15.702Z,100874.84
2019-04-28T03:40:44.398Z,100878.80
2019-04-28T03:43:14.356Z,100882.91
2019-04-28T03:45:53.931Z,100883.40
2019-04-28T03:48:22.533Z,100889.65
2019-04-28T03:50:51.509Z,100892.48
2019-04-28T03:53:20.770Z,100892.64
2019-04-28T03:55:51.295Z,100897.95
2019-04-28T03:58:23.661Z,100899.25
2019-04-28T04:00:50.753Z,100896.53
2019-04-28T04:03:21.135Z,100899.04
2019-04-28T04:05:50.897Z,100908.73
2019-04-28T04:08:20.920Z,100902.88
2019-04-28T04:10:51.337Z,100907.38
2019-04-28T04:13:33.311Z,100908.16
2019-04-28T04:16:21.680Z,100914.67
2019-04-28T04:18:54.798Z,100914.63
2019-04-28T04:21:23.527Z,100912.78
2019-04-28T04:23:52.137Z,100914.28
2019-04-28T04:26:21.500Z,100917.44
2019-04-28T04:28:51.435Z,100922.45
2019-04-28T04:31:20.347Z,100924.07
2019-04-28T04:33:50.534Z,100925.59
2019-04-28T04:36:21.153Z,100930.27
2019-04-28T04:38:51.208Z,100936.62
2019-04-28T04:41:20.262Z,100934.95
2019-04-28T04:43:51.344Z,100924.55
2019-04-28T04:46:22.077Z,100921.34
2019-04-28T04:48:51.417Z,100925.08
2019-04-28T04:51:21.233Z,100943.19
2019-04-28T04:53:51.332Z,100951.14
2019-04-28T04:56:21.286Z,100954.47
2019-04-28T04:58:50.686Z,100964.95
2019-04-28T05:01:40.671Z,100964.36
2019-04-28T05:04:20.153Z,100965.18
2019-04-28T05:06:49.702Z,100968.17
2019-04-28T05:09:19.648Z,100971.81
2019-04-28T05:11:49.934Z,100975.14
2019-04-28T05:14:19.820Z,100970.38
2019-04-28T05:16:49.752Z,100982.73
2019-04-28T05:19:19.862Z,100990.70
2019-04-28T05:21:49.856Z,101003.79
2019-04-28T05:24:26.016Z,101010.34
2019-04-28T05:26:56.146Z,101013.73
2019-04-28T05:29:26.879Z,101014.41
2019-04-28T05:31:59.833Z,101021.06
2019-04-28T05:34:31.162Z,101022.17
2019-04-28T05:37:00.724Z,101026.07
2019-04-28T05:39:29.880Z,101031.74
2019-04-28T05:41:58.450Z,101028.92
2019-04-28T05:44:27.016Z,101032.67
2019-04-28T05:46:59.568Z,101023.42
2019-04-28T05:49:45.084Z,101024.59
2019-04-28T05:52:31.836Z,101027.37
2019-04-28T05:55:14.065Z,101029.10
2019-04-28T05:57:53.001Z,101019.09
2019-04-28T06:00:41.831Z,101026.65
2019-04-28T06:03:14.679Z,101020.61
2019-04-28T06:05:43.245Z,101023.40
2019-04-28T06:08:30.321Z,101022.19
2019-04-28T06:10:59.935Z,101018.34
2019-04-28T06:13:30.293Z,101024.24
2019-04-28T06:15:59.902Z,101028.69
2019-04-28T06:18:28.659Z,101028.98
2019-04-28T06:20:58.821Z,101027.63
2019-04-28T06:23:27.649Z,101023.14
2019-04-28T06:25:57.906Z,101019.66
2019-04-28T06:28:26.771Z,101027.73
2019-04-28T06:30:55.331Z,101029.70
2019-04-28T06:33:24.087Z,101030.51
2019-04-28T06:35:52.862Z,101031.36
2019-04-28T06:38:21.473Z,101035.61
2019-04-28T06:40:50.420Z,101037.53
2019-04-28T06:43:19.030Z,101043.98
2019-04-28T06:45:47.609Z,101039.63
2019-04-28T06:48:16.321Z,101042.05
2019-04-28T06:50:44.980Z,101033.61
2019-04-28T06:53:13.855Z,101039.75
2019-04-28T06:55:42.593Z,101042.84
2019-04-28T06:58:11.242Z,101051.19
2019-04-28T07:00:39.880Z,101054.44
2019-04-28T07:03:17.016Z,101052.45
2019-04-28T07:05:39.033Z,101063.17
2019-04-28T07:08:08.671Z,101060.44
2019-04-28T07:10:37.335Z,101056.38
2019-04-28T07:13:06.061Z,101062.41
2019-04-28T07:15:34.686Z,101065.58
2019-04-28T07:18:03.305Z,101066.88
2019-04-28T07:20:33.566Z,101064.47
2019-04-28T07:23:02.115Z,101064.63
2019-04-28T07:25:30.992Z,101067.09
2019-04-28T07:28:00.033Z,101068.71
2019-04-28T07:30:28.920Z,101068.59
2019-04-28T07:33:00.387Z,101065.83
2019-04-28T07:35:28.983Z,101070.36
2019-04-28T07:37:57.697Z,101076.90
2019-04-28T07:40:26.550Z,101077.58
2019-04-28T07:42:57.312Z,101087.44
2019-04-28T07:45:26.417Z,101081.27
2019-04-28T07:47:56.188Z,101081.19
2019-04-28T07:50:24.755Z,101090.31
2019-04-28T07:53:06.420Z,101091.80
2019-04-28T07:55:35.016Z,101092.50
2019-04-28T07:58:03.624Z,101098.34
2019-04-28T08:00:32.459Z,101100.47
2019-04-28T08:03:02.133Z,101101.36
2019-04-28T08:05:30.748Z,101102.44
2019-04-28T08:07:59.368Z,101108.72
2019-04-28T08:10:29.554Z,101122.04
2019-04-28T08:13:00.951Z,101129.09
2019-04-28T08:15:29.508Z,101133.81
2019-04-28T08:17:58.407Z,101137.42
2019-04-28T08:20:27.017Z,101141.13
2019-04-28T08:22:55.986Z,101137.59
2019-04-28T08:25:24.551Z,101141.30
2019-04-28T08:27:53.160Z,101139.49
2019-04-28T08:30:21.768Z,101139.97
2019-04-28T08:32:57.905Z,101150.44
2019-04-28T08:35:26.688Z,101139.70
2019-04-28T08:37:55.918Z,101148.45
2019-04-28T08:40:24.717Z,101144.88
2019-04-28T08:42:53.285Z,101150.42
2019-04-28T08:45:21.952Z,101160.02
2019-04-28T08:47:50.668Z,101165.66
2019-04-28T08:50:19.551Z,101166.47
2019-04-28T08:52:48.127Z,101169.08
2019-04-28T08:55:17.207Z,101176.47
2019-04-28T08:57:45.787Z,101173.62
2019-04-28T09:00:16.713Z,101193.05
2019-04-28T09:02:45.430Z,101193.00
2019-04-28T09:05:14.749Z,101196.64
2019-04-28T09:07:43.358Z,101205.70
2019-04-28T09:10:12.187Z,101199.59
2019-04-28T09:12:40.832Z,101201.98
2019-04-28T09:15:09.654Z,101203.34
2019-04-28T09:17:38.344Z,101210.48
2019-04-28T09:20:07.871Z,101203.33
2019-04-28T09:22:36.484Z,101211.50
2019-04-28T09:25:06.875Z,101214.42
2019-04-28T09:27:35.542Z,101215.80
2019-04-28T09:30:06.939Z,101220.36
2019-04-28T09:32:35.555Z,101230.52
2019-04-28T09:35:08.353Z,101220.57
2019-04-28T09:37:36.967Z,101219.23
2019-04-28T09:40:08.411Z,101219.63
2019-04-28T09:42:38.601Z,101227.29
2019-04-28T09:45:09.498Z,101224.44
2019-04-28T09:47:38.065Z,101226.95
2019-04-28T09:50:07.257Z,101228.02
2019-04-28T09:52:36.106Z,101235.22
2019-04-28T09:55:06.061Z,101225.77
2019-04-28T09:57:34.685Z,101227.11
2019-04-28T10:00:04.303Z,101233.14
2019-04-28T10:02:32.851Z,101235.01
2019-04-28T10:05:01.422Z,101230.16
2019-04-28T10:07:30.436Z,101235.56
2019-04-28T10:09:58.994Z,101237.98
2019-04-28T10:12:29.968Z,101238.11
2019-04-28T10:14:58.573Z,101235.05
2019-04-28T10:17:28.688Z,101235.41
2019-04-28T10:20:17.880Z,101230.21
2019-04-28T10:22:47.050Z,101232.77
2019-04-28T10:25:16.429Z,101239.84
2019-04-28T10:27:45.043Z,101237.88
2019-04-28T10:30:16.415Z,101232.83
2019-04-28T10:32:44.975Z,101241.06
2019-04-28T10:35:15.180Z,101237.60
2019-04-28T10:37:45.563Z,101239.88
2019-04-28T10:40:19.201Z,101238.81
2019-04-28T10:42:47.755Z,101236.95
2019-04-28T10:45:20.846Z,101234.41
2019-04-28T10:47:49.568Z,101240.80
2019-04-28T10:50:18.567Z,101242.98
2019-04-28T10:52:47.448Z,101234.67
2019-04-28T10:55:16.151Z,101237.88
2019-04-28T10:57:44.749Z,101235.15
2019-04-28T11:00:14.046Z,101230.69
2019-04-28T11:02:43.385Z,101233.75
2019-04-28T11:05:16.381Z,101232.89
2019-04-28T11:07:45.089Z,101238.07
2019-04-28T11:10:15.268Z,101232.96
2019-04-28T11:12:43.888Z,101240.91
2019-04-28T11:15:20.319Z,101242.69
2019-04-28T11:17:49.240Z,101230.52
2019-04-28T11:20:17.868Z,101241.82
2019-04-28T11:22:46.488Z,101238.77
2019-04-28T11:25:15.210Z,101246.66
2019-04-28T11:27:43.750Z,101234.22
2019-04-28T11:30:13.144Z,101242.23
2019-04-28T11:32:43.337Z,101245.03
2019-04-28T11:35:32.529Z,101242.69
2019-04-28T11:38:01.141Z,101239.06
2019-04-28T11:40:29.791Z,101244.45
2019-04-28T11:42:58.579Z,101243.48
2019-04-28T11:45:29.243Z,101251.63
2019-04-28T11:47:59.511Z,101251.57
2019-04-28T11:50:30.897Z,101254.80
2019-04-28T11:52:59.707Z,101259.30
2019-04-28T11:55:28.326Z,101250.63
2019-04-28T11:57:56.883Z,101248.91
2019-04-28T12:00:35.804Z,101248.11
2019-04-28T12:03:04.642Z,101252.83
2019-04-28T12:05:35.035Z,101247.92
2019-04-28T12:08:03.730Z,101251.66
2019-04-28T12:10:52.355Z,101250.31
2019-04-28T12:28:17.613Z,101259.80
2019-04-28T12:30:59.571Z,101262.83
2019-04-28T12:39:44.092Z,101267.13
2019-04-28T12:42:19.271Z,101273.31
2019-04-28T12:44:47.915Z,101274.73
2019-04-28T12:47:16.526Z,101278.28
2019-04-28T12:49:49.755Z,101282.31
2019-04-28T12:52:18.881Z,101280.31
2019-04-28T12:54:47.603Z,101275.02
2019-04-28T12:57:16.545Z,101277.37
2019-04-28T12:59:49.447Z,101273.55
2019-04-28T13:02:35.471Z,101272.88
2019-04-28T13:05:10.341Z,101276.36
2019-04-28T13:07:38.991Z,101281.20
2019-04-28T13:10:07.882Z,101280.09
2019-04-28T13:12:36.529Z,101280.45
2019-04-28T13:15:06.667Z,101290.81
2019-04-28T13:17:35.275Z,101282.58
2019-04-28T13:20:04.406Z,101282.55
2019-04-28T13:22:33.541Z,101280.06
2019-04-28T13:25:02.382Z,101281.78
2019-04-28T13:27:30.978Z,101277.95
2019-04-28T13:29:59.585Z,101282.09
2019-04-28T13:32:47.511Z,101281.17
2019-04-28T13:35:16.885Z,101279.09
2019-04-28T13:37:46.073Z,101278.65
2019-04-28T13:40:34.580Z,101277.27
2019-04-28T13:43:03.382Z,101274.18
2019-04-28T13:45:32.339Z,101274.52
2019-04-28T13:48:01.218Z,101271.13
2019-04-28T13:50:31.628Z,101271.25
2019-04-28T13:53:00.292Z,101271.75
2019-04-28T13:55:30.590Z,101265.38
2019-04-28T13:58:01.576Z,101258.72
2019-04-28T14:00:40.546Z,101262.41
2019-04-28T14:03:23.058Z,101262.44
2019-04-28T14:05:55.980Z,101264.81
2019-04-28T14:08:24.532Z,101255.44
2019-04-28T14:10:53.098Z,101256.30
2019-04-28T14:13:21.748Z,101262.19
2019-04-28T14:15:50.725Z,101264.08
2019-04-28T14:18:19.674Z,101262.38
2019-04-28T14:20:48.487Z,101258.38
2019-04-28T14:23:17.424Z,101261.88
2019-04-28T14:25:46.408Z,101261.48
2019-04-28T14:28:15.325Z,101258.66
2019-04-28T14:30:43.935Z,101260.89
2019-04-28T14:33:12.605Z,101263.00
2019-04-28T14:35:41.278Z,101264.17
2019-04-28T14:38:09.885Z,101260.21
2019-04-28T14:40:38.436Z,101263.58
2019-04-28T14:43:07.032Z,101266.03
2019-04-28T14:45:35.997Z,101263.00
2019-04-28T14:48:04.674Z,101270.60
2019-04-28T14:50:33.276Z,101268.45
2019-04-28T14:53:01.990Z,101266.88
2019-04-28T14:55:30.752Z,101270.31
2019-04-28T14:57:59.784Z,101265.48
2019-04-28T15:00:39.083Z,101269.62
2019-04-28T15:03:11.788Z,101272.58
2019-04-28T15:05:42.157Z,101265.63
2019-04-28T15:08:17.990Z,101267.59
2019-04-28T15:11:00.306Z,101275.22
2019-04-28T15:13:29.153Z,101276.22
2019-04-28T15:15:57.889Z,101276.70
2019-04-28T15:18:26.912Z,101278.52
2019-04-28T15:20:55.739Z,101275.22
2019-04-28T15:23:24.339Z,101282.02
2019-04-28T15:25:52.951Z,101272.28
2019-04-28T15:28:21.573Z,101273.66
2019-04-28T15:30:50.292Z,101274.91
2019-04-28T15:33:19.029Z,101274.52
2019-04-28T15:35:47.624Z,101283.89
2019-04-28T15:38:16.345Z,101278.69
2019-04-28T15:40:45.057Z,101281.83
2019-04-28T15:43:13.616Z,101281.51
2019-04-28T15:45:42.496Z,101283.00
2019-04-28T15:48:11.094Z,101277.00
2019-04-28T15:50:39.636Z,101280.38
2019-04-28T15:53:08.206Z,101285.45
2019-04-28T15:55:38.468Z,101280.21
2019-04-28T15:58:27.892Z,101292.47
2019-04-28T16:00:56.448Z,101285.34
2019-04-28T16:03:25.624Z,101284.22
2019-04-28T16:05:54.331Z,101284.25
2019-04-28T16:08:22.968Z,101284.00
2019-04-28T16:10:51.588Z,101277.64
2019-04-28T16:13:20.203Z,101278.45
2019-04-28T16:15:48.814Z,101283.40
2019-04-28T16:18:17.387Z,101283.09
2019-04-28T16:20:46.138Z,101279.59
2019-04-28T16:23:14.986Z,101274.63
2019-04-28T16:25:43.627Z,101271.63
2019-04-28T16:28:12.256Z,101277.78
2019-04-28T16:30:40.778Z,101280.43
2019-04-28T16:33:09.368Z,101276.88
2019-04-28T16:35:37.985Z,101274.77
2019-04-28T16:38:06.544Z,101284.73
2019-04-28T16:40:35.447Z,101284.54
2019-04-28T16:43:04.913Z,101282.41
2019-04-28T16:45:33.556Z,101279.84
2019-04-28T16:48:02.164Z,101274.44
2019-04-28T16:50:31.228Z,101282.45
2019-04-28T16:52:59.900Z,101294.99
2019-04-28T16:55:30.556Z,101288.73
2019-04-28T16:58:03.260Z,101296.30
2019-04-28T17:00:48.298Z,101295.33
2019-04-28T17:03:17.490Z,101295.30
2019-04-28T17:05:46.112Z,101299.77
2019-04-28T17:08:14.821Z,101302.80
2019-04-28T17:10:43.637Z,101301.63
2019-04-28T17:13:12.357Z,101302.59
2019-04-28T17:15:40.976Z,101301.13
2019-04-28T17:18:09.585Z,101305.25
2019-04-28T17:20:38.209Z,101300.99
2019-04-28T17:23:06.814Z,101311.30
2019-04-28T17:25:35.559Z,101301.33
2019-04-28T17:28:04.364Z,101309.44
2019-04-28T17:30:33.091Z,101315.13
2019-04-28T17:33:01.662Z,101316.45
2019-04-28T17:35:30.540Z,101313.68
2019-04-28T17:38:06.412Z,101320.78
2019-04-28T17:40:30.839Z,101313.65
2019-04-28T17:42:59.977Z,101324.02
2019-04-28T17:45:28.534Z,101327.64
2019-04-28T17:48:00.286Z,101331.87
2019-04-28T17:50:29.445Z,101332.45
2019-04-28T17:52:59.573Z,101336.10
2019-04-28T17:55:30.863Z,101336.57
2019-04-28T17:57:59.492Z,101334.84
2019-04-28T18:00:47.773Z,101342.56
2019-04-28T18:03:30.525Z,101346.19
2019-04-28T18:06:17.884Z,101347.69
2019-04-28T18:08:47.220Z,101346.67
2019-04-28T18:11:16.330Z,101357.66
2019-04-28T18:13:44.939Z,101360.80
2019-04-28T18:16:30.551Z,101362.75
2019-04-28T18:19:01.210Z,101368.64
2019-04-28T18:21:30.228Z,101365.57
2019-04-28T18:23:58.837Z,101372.73
2019-04-28T18:26:30.447Z,101368.78
2019-04-28T18:28:59.060Z,101368.30
2019-04-28T18:31:29.307Z,101374.48
2019-04-28T18:34:16.257Z,101376.27
2019-04-28T18:36:46.514Z,101378.20
2019-04-28T18:39:32.944Z,101379.33
2019-04-28T18:42:03.226Z,101384.80
2019-04-28T18:44:31.913Z,101386.66
2019-04-28T18:47:00.520Z,101393.31
2019-04-28T18:49:29.134Z,101391.88
2019-04-28T18:51:57.743Z,101395.96
2019-04-28T18:54:26.961Z,101389.22
2019-04-28T18:56:57.846Z,101395.94
2019-04-28T18:59:26.459Z,101390.88
2019-04-28T19:01:59.477Z,101397.48
2019-04-28T19:04:29.622Z,101398.23
2019-04-28T19:07:05.288Z,101400.14
2019-04-28T19:09:33.302Z,101404.50
2019-04-28T19:12:03.568Z,101392.94
2019-04-28T19:14:36.842Z,101401.38
2019-04-28T19:17:09.937Z,101406.20
2019-04-28T19:19:40.363Z,101402.33
2019-04-28T19:22:08.973Z,101405.16
2019-04-28T19:24:37.584Z,101401.25
2019-04-28T19:27:06.398Z,101402.16
2019-04-28T19:29:35.017Z,101401.73
2019-04-28T19:32:03.700Z,101397.91
2019-04-28T19:34:32.376Z,101397.20
2019-04-28T19:37:01.085Z,101396.44
2019-04-28T19:39:30.068Z,101392.87
2019-04-28T19:41:58.631Z,101396.50
2019-04-28T19:44:29.173Z,101399.77
2019-04-28T19:46:57.944Z,101401.25
2019-04-28T19:49:26.911Z,101404.86
2019-04-28T19:51:55.830Z,101407.72
2019-04-28T19:54:26.192Z,101410.97
2019-04-28T19:57:05.462Z,101410.52
2019-04-28T19:59:52.003Z,101416.00
2019-04-28T20:02:20.731Z,101415.61
2019-04-28T20:04:49.364Z,101411.04
2019-04-28T20:07:17.987Z,101412.05
2019-04-28T20:09:46.631Z,101420.96
2019-04-28T20:12:15.289Z,101422.06
2019-04-28T20:14:43.889Z,101418.20
2019-04-28T20:17:12.959Z,101424.26
2019-04-28T20:19:41.571Z,101422.64
2019-04-28T20:22:10.202Z,101417.09
2019-04-28T20:24:46.949Z,101419.53
2019-04-28T20:27:09.132Z,101420.30
2019-04-28T20:29:37.789Z,101417.70
2019-04-28T20:32:06.438Z,101417.38
2019-04-28T20:34:35.073Z,101416.91
2019-04-28T20:37:08.108Z,101414.04
2019-04-28T20:39:36.750Z,101421.20
2019-04-28T20:42:23.262Z,101422.95
2019-04-28T20:44:52.306Z,101423.63
2019-04-28T20:47:20.923Z,101427.05
2019-04-28T20:49:49.557Z,101433.82
2019-04-28T20:52:18.208Z,101434.41
2019-04-28T20:54:46.809Z,101435.57
2019-04-28T20:57:15.428Z,101430.77
2019-04-28T20:59:44.067Z,101437.20
2019-04-28T21:02:13.025Z,101429.07
2019-04-28T21:04:41.651Z,101430.52
2019-04-28T21:07:10.269Z,101431.50
2019-04-28T21:09:38.987Z,101432.65
2019-04-28T21:12:08.027Z,101431.88
2019-04-28T21:14:36.754Z,101428.75
2019-04-28T21:17:05.475Z,101433.68
2019-04-28T21:19:34.734Z,101430.83
2019-04-28T21:22:03.373Z,101428.24
2019-04-28T21:24:32.008Z,101429.47
2019-04-28T21:27:00.669Z,101431.03
2019-04-28T21:29:29.321Z,101431.98
2019-04-28T21:31:59.457Z,101435.05
2019-04-28T21:34:29.280Z,101430.41
2019-04-28T21:36:58.148Z,101426.64
2019-04-28T21:39:30.009Z,101432.91
2019-04-28T21:42:00.019Z,101429.11
2019-04-28T21:44:30.285Z,101430.47
2019-04-28T21:47:01.160Z,101426.30
2019-04-28T21:49:31.806Z,101429.52
2019-04-28T21:52:00.418Z,101419.78
2019-04-28T21:54:29.026Z,101428.47
2019-04-28T21:57:00.609Z,101434.64
2019-04-28T21:59:29.219Z,101430.45
2019-04-28T22:01:57.865Z,101421.88
2019-04-28T22:04:28.219Z,101423.23
2019-04-28T22:07:00.229Z,101422.55
2019-04-28T22:09:28.878Z,101426.91
2019-04-28T22:12:00.583Z,101429.52
2019-04-28T22:14:29.158Z,101431.58
2019-04-28T22:16:57.718Z,101427.67
2019-04-28T22:19:27.963Z,101425.69
2019-04-28T22:21:56.586Z,101424.56
2019-04-28T22:24:38.825Z,101427.87
2019-04-28T22:27:09.072Z,101421.05
2019-04-28T22:29:37.691Z,101418.19
2019-04-28T22:32:06.305Z,101423.37
2019-04-28T22:34:34.912Z,101418.42
2019-04-28T22:37:03.535Z,101418.28
2019-04-28T22:39:32.180Z,101411.80
2019-04-28T22:42:00.905Z,101419.22
2019-04-28T22:44:29.786Z,101418.82
2019-04-28T22:46:58.714Z,101421.11
2019-04-28T22:49:28.866Z,101418.91
2019-04-28T22:52:00.149Z,101414.36
2019-04-28T22:54:30.396Z,101417.89
2019-04-28T22:57:00.655Z,101409.55
2019-04-28T22:59:39.908Z,101409.06
2019-04-28T23:02:13.128Z,101414.73
2019-04-28T23:04:49.113Z,101410.81
2019-04-28T23:07:18.101Z,101411.07
2019-04-28T23:09:46.656Z,101406.53
2019-04-28T23:12:15.244Z,101405.86
2019-04-28T23:14:43.802Z,101400.99
2019-04-28T23:17:13.995Z,101396.13
2019-04-28T23:19:43.973Z,101405.04
2019-04-28T23:22:23.745Z,101406.84
2019-04-28T23:25:06.405Z,101411.43
2019-04-28T23:27:34.970Z,101399.27
2019-04-28T23:30:05.268Z,101406.57
2019-04-28T23:35:37.103Z,101398.36
2019-04-28T23:41:10.058Z,101385.14
2019-04-28T23:43:38.976Z,101393.77
2019-04-28T23:46:07.555Z,101388.38
2019-04-28T23:48:36.829Z,101381.41
2019-04-28T23:51:16.199Z,101388.91
2019-04-28T23:53:58.143Z,101390.03
2019-04-28T23:56:29.840Z,101389.06
2019-04-28T23:58:58.434Z,101396.67
